sensor_id;sensor_type;location;lat;lon;timestamp;P1;durP1;ratioP1;P2;durP2;ratioP2
57848;SDS011;68645;44.762;21.516;2023-06-22T00:01:52;34.33;;;22.00;;
57848;SDS011;68645;44.762;21.516;2023-06-22T00:04:18;53.38;;;29.90;;
57848;SDS011;68645;44.762;21.516;2023-06-22T00:06:44;54.70;;;32.22;;
57848;SDS011;68645;44.762;21.516;2023-06-22T00:09:10;71.85;;;39.25;;
57848;SDS011;68645;44.762;21.516;2023-06-22T00:11:37;81.05;;;45.70;;
57848;SDS011;68645;44.762;21.516;2023-06-22T00:14:03;83.72;;;45.25;;
57848;SDS011;68645;44.762;21.516;2023-06-22T00:16:30;82.85;;;44.40;;
57848;SDS011;68645;44.762;21.516;2023-06-22T00:18:56;75.43;;;41.35;;
57848;SDS011;68645;44.762;21.516;2023-06-22T00:21:25;64.10;;;35.75;;
57848;SDS011;68645;44.762;21.516;2023-06-22T00:23:51;44.95;;;28.20;;
57848;SDS011;68645;44.762;21.516;2023-06-22T00:26:17;32.05;;;21.40;;
57848;SDS011;68645;44.762;21.516;2023-06-22T00:28:44;30.05;;;20.02;;
57848;SDS011;68645;44.762;21.516;2023-06-22T00:31:10;21.52;;;15.68;;
57848;SDS011;68645;44.762;21.516;2023-06-22T00:33:36;22.25;;;15.50;;
57848;SDS011;68645;44.762;21.516;2023-06-22T00:36:02;18.65;;;14.23;;
57848;SDS011;68645;44.762;21.516;2023-06-22T00:38:29;19.27;;;14.18;;
57848;SDS011;68645;44.762;21.516;2023-06-22T00:40:55;16.88;;;12.95;;
57848;SDS011;68645;44.762;21.516;2023-06-22T00:43:21;18.88;;;12.68;;
57848;SDS011;68645;44.762;21.516;2023-06-22T00:45:47;17.65;;;13.77;;
57848;SDS011;68645;44.762;21.516;2023-06-22T00:48:13;22.33;;;15.35;;
57848;SDS011;68645;44.762;21.516;2023-06-22T00:50:40;32.20;;;20.15;;
57848;SDS011;68645;44.762;21.516;2023-06-22T00:53:07;34.88;;;20.95;;
57848;SDS011;68645;44.762;21.516;2023-06-22T00:55:37;28.90;;;19.42;;
57848;SDS011;68645;44.762;21.516;2023-06-22T00:58:06;36.85;;;23.50;;
57848;SDS011;68645;44.762;21.516;2023-06-22T01:00:35;33.08;;;20.58;;
57848;SDS011;68645;44.762;21.516;2023-06-22T01:03:02;31.48;;;21.00;;
57848;SDS011;68645;44.762;21.516;2023-06-22T01:05:28;34.17;;;21.52;;
57848;SDS011;68645;44.762;21.516;2023-06-22T01:13:16;35.47;;;20.42;;
57848;SDS011;68645;44.762;21.516;2023-06-22T01:15:45;33.70;;;20.50;;
57848;SDS011;68645;44.762;21.516;2023-06-22T01:18:14;27.75;;;18.52;;
57848;SDS011;68645;44.762;21.516;2023-06-22T01:20:42;27.80;;;17.50;;
57848;SDS011;68645;44.762;21.516;2023-06-22T01:31:08;28.30;;;17.35;;
57848;SDS011;68645;44.762;21.516;2023-06-22T01:33:37;32.53;;;21.98;;
57848;SDS011;68645;44.762;21.516;2023-06-22T01:36:03;39.20;;;24.88;;
57848;SDS011;68645;44.762;21.516;2023-06-22T01:38:30;47.40;;;31.55;;
57848;SDS011;68645;44.762;21.516;2023-06-22T01:40:57;35.22;;;23.13;;
57848;SDS011;68645;44.762;21.516;2023-06-22T01:43:25;30.30;;;21.92;;
57848;SDS011;68645;44.762;21.516;2023-06-22T01:45:53;35.55;;;22.70;;
57848;SDS011;68645;44.762;21.516;2023-06-22T01:48:19;35.72;;;21.35;;
57848;SDS011;68645;44.762;21.516;2023-06-22T01:50:46;29.00;;;21.08;;
57848;SDS011;68645;44.762;21.516;2023-06-22T01:53:13;32.05;;;22.15;;
57848;SDS011;68645;44.762;21.516;2023-06-22T01:55:39;36.15;;;22.48;;
57848;SDS011;68645;44.762;21.516;2023-06-22T01:58:05;33.13;;;20.95;;
57848;SDS011;68645;44.762;21.516;2023-06-22T02:00:33;33.53;;;21.63;;
57848;SDS011;68645;44.762;21.516;2023-06-22T02:03:12;33.95;;;21.52;;
57848;SDS011;68645;44.762;21.516;2023-06-22T02:10:34;58.45;;;32.10;;
57848;SDS011;68645;44.762;21.516;2023-06-22T02:13:01;94.78;;;50.97;;
57848;SDS011;68645;44.762;21.516;2023-06-22T02:15:28;121.15;;;63.30;;
57848;SDS011;68645;44.762;21.516;2023-06-22T02:17:54;112.38;;;57.22;;
57848;SDS011;68645;44.762;21.516;2023-06-22T02:20:21;110.60;;;57.55;;
57848;SDS011;68645;44.762;21.516;2023-06-22T02:22:47;121.07;;;64.82;;
57848;SDS011;68645;44.762;21.516;2023-06-22T02:25:13;102.97;;;56.92;;
57848;SDS011;68645;44.762;21.516;2023-06-22T02:27:39;89.80;;;48.10;;
57848;SDS011;68645;44.762;21.516;2023-06-22T02:30:07;92.45;;;49.70;;
57848;SDS011;68645;44.762;21.516;2023-06-22T02:32:34;98.15;;;51.85;;
57848;SDS011;68645;44.762;21.516;2023-06-22T02:35:00;83.40;;;47.35;;
57848;SDS011;68645;44.762;21.516;2023-06-22T02:37:32;82.80;;;46.45;;
57848;SDS011;68645;44.762;21.516;2023-06-22T02:39:58;75.13;;;42.35;;
57848;SDS011;68645;44.762;21.516;2023-06-22T02:42:24;56.63;;;33.28;;
57848;SDS011;68645;44.762;21.516;2023-06-22T02:44:50;51.15;;;30.17;;
57848;SDS011;68645;44.762;21.516;2023-06-22T02:47:16;43.38;;;26.15;;
57848;SDS011;68645;44.762;21.516;2023-06-22T02:49:43;26.15;;;18.25;;
57848;SDS011;68645;44.762;21.516;2023-06-22T02:52:10;26.73;;;17.40;;
57848;SDS011;68645;44.762;21.516;2023-06-22T02:54:37;23.38;;;16.13;;
57848;SDS011;68645;44.762;21.516;2023-06-22T02:57:03;21.63;;;14.27;;
57848;SDS011;68645;44.762;21.516;2023-06-22T02:59:29;20.13;;;14.48;;
57848;SDS011;68645;44.762;21.516;2023-06-22T03:01:55;20.38;;;15.30;;
57848;SDS011;68645;44.762;21.516;2023-06-22T03:04:21;20.30;;;13.98;;
57848;SDS011;68645;44.762;21.516;2023-06-22T03:06:48;22.45;;;14.88;;
57848;SDS011;68645;44.762;21.516;2023-06-22T03:09:16;24.05;;;15.07;;
57848;SDS011;68645;44.762;21.516;2023-06-22T03:11:42;25.10;;;17.27;;
57848;SDS011;68645;44.762;21.516;2023-06-22T03:14:08;30.00;;;21.35;;
57848;SDS011;68645;44.762;21.516;2023-06-22T03:16:35;35.17;;;26.00;;
57848;SDS011;68645;44.762;21.516;2023-06-22T03:19:01;38.67;;;26.30;;
57848;SDS011;68645;44.762;21.516;2023-06-22T03:21:28;34.70;;;23.70;;
57848;SDS011;68645;44.762;21.516;2023-06-22T03:23:55;32.67;;;20.27;;
57848;SDS011;68645;44.762;21.516;2023-06-22T03:26:21;27.63;;;18.27;;
57848;SDS011;68645;44.762;21.516;2023-06-22T03:28:49;27.83;;;19.42;;
57848;SDS011;68645;44.762;21.516;2023-06-22T03:31:15;33.97;;;22.77;;
57848;SDS011;68645;44.762;21.516;2023-06-22T03:33:41;46.35;;;27.15;;
57848;SDS011;68645;44.762;21.516;2023-06-22T03:36:07;60.88;;;32.33;;
57848;SDS011;68645;44.762;21.516;2023-06-22T03:38:33;51.92;;;30.02;;
57848;SDS011;68645;44.762;21.516;2023-06-22T03:40:59;48.92;;;28.95;;
57848;SDS011;68645;44.762;21.516;2023-06-22T03:43:26;41.33;;;24.65;;
57848;SDS011;68645;44.762;21.516;2023-06-22T03:45:52;36.45;;;22.75;;
57848;SDS011;68645;44.762;21.516;2023-06-22T03:48:18;29.65;;;19.58;;
57848;SDS011;68645;44.762;21.516;2023-06-22T03:50:44;27.98;;;19.88;;
57848;SDS011;68645;44.762;21.516;2023-06-22T03:53:11;30.77;;;19.80;;
57848;SDS011;68645;44.762;21.516;2023-06-22T03:55:40;30.67;;;19.40;;
57848;SDS011;68645;44.762;21.516;2023-06-22T03:58:06;28.63;;;18.33;;
57848;SDS011;68645;44.762;21.516;2023-06-22T04:00:34;28.85;;;19.02;;
57848;SDS011;68645;44.762;21.516;2023-06-22T04:03:00;26.38;;;17.80;;
57848;SDS011;68645;44.762;21.516;2023-06-22T04:05:27;28.27;;;19.25;;
57848;SDS011;68645;44.762;21.516;2023-06-22T04:07:53;27.27;;;18.65;;
57848;SDS011;68645;44.762;21.516;2023-06-22T04:10:19;30.17;;;19.25;;
57848;SDS011;68645;44.762;21.516;2023-06-22T04:12:45;27.30;;;18.13;;
57848;SDS011;68645;44.762;21.516;2023-06-22T04:15:12;29.00;;;19.35;;
57848;SDS011;68645;44.762;21.516;2023-06-22T04:17:38;25.85;;;19.38;;
57848;SDS011;68645;44.762;21.516;2023-06-22T04:20:04;27.92;;;18.90;;
57848;SDS011;68645;44.762;21.516;2023-06-22T04:22:30;25.60;;;19.05;;
57848;SDS011;68645;44.762;21.516;2023-06-22T04:24:56;25.77;;;18.90;;
57848;SDS011;68645;44.762;21.516;2023-06-22T04:27:22;25.60;;;18.38;;
57848;SDS011;68645;44.762;21.516;2023-06-22T04:29:49;24.85;;;17.17;;
57848;SDS011;68645;44.762;21.516;2023-06-22T04:32:16;28.65;;;19.08;;
57848;SDS011;68645;44.762;21.516;2023-06-22T04:34:42;27.38;;;19.13;;
57848;SDS011;68645;44.762;21.516;2023-06-22T04:37:09;28.55;;;19.35;;
57848;SDS011;68645;44.762;21.516;2023-06-22T04:39:40;33.42;;;22.20;;
57848;SDS011;68645;44.762;21.516;2023-06-22T04:42:06;33.38;;;21.85;;
57848;SDS011;68645;44.762;21.516;2023-06-22T04:44:32;32.63;;;22.02;;
57848;SDS011;68645;44.762;21.516;2023-06-22T04:46:59;33.22;;;21.40;;
57848;SDS011;68645;44.762;21.516;2023-06-22T04:49:27;29.45;;;20.02;;
57848;SDS011;68645;44.762;21.516;2023-06-22T04:52:02;32.58;;;20.45;;
57848;SDS011;68645;44.762;21.516;2023-06-22T04:54:28;30.13;;;20.42;;
57848;SDS011;68645;44.762;21.516;2023-06-22T04:56:54;32.30;;;20.90;;
57848;SDS011;68645;44.762;21.516;2023-06-22T04:59:24;31.13;;;21.33;;
57848;SDS011;68645;44.762;21.516;2023-06-22T05:01:57;32.85;;;21.08;;
57848;SDS011;68645;44.762;21.516;2023-06-22T05:04:24;31.98;;;19.88;;
57848;SDS011;68645;44.762;21.516;2023-06-22T05:06:51;32.22;;;20.05;;
57848;SDS011;68645;44.762;21.516;2023-06-22T05:09:17;31.80;;;19.83;;
57848;SDS011;68645;44.762;21.516;2023-06-22T05:11:44;34.47;;;20.13;;
57848;SDS011;68645;44.762;21.516;2023-06-22T05:14:10;34.90;;;19.88;;
57848;SDS011;68645;44.762;21.516;2023-06-22T05:16:37;29.70;;;19.60;;
57848;SDS011;68645;44.762;21.516;2023-06-22T05:19:03;33.08;;;20.05;;
57848;SDS011;68645;44.762;21.516;2023-06-22T05:21:30;36.25;;;20.75;;
57848;SDS011;68645;44.762;21.516;2023-06-22T05:23:57;97.00;;;68.45;;
57848;SDS011;68645;44.762;21.516;2023-06-22T05:26:26;202.60;;;152.93;;
57848;SDS011;68645;44.762;21.516;2023-06-22T05:28:52;53.90;;;40.22;;
57848;SDS011;68645;44.762;21.516;2023-06-22T05:31:19;47.70;;;34.83;;
57848;SDS011;68645;44.762;21.516;2023-06-22T05:33:46;29.15;;;19.13;;
57848;SDS011;68645;44.762;21.516;2023-06-22T05:36:12;25.17;;;18.40;;
57848;SDS011;68645;44.762;21.516;2023-06-22T05:38:39;25.55;;;18.13;;
57848;SDS011;68645;44.762;21.516;2023-06-22T05:41:06;80.38;;;67.50;;
57848;SDS011;68645;44.762;21.516;2023-06-22T05:43:32;35.38;;;26.25;;
57848;SDS011;68645;44.762;21.516;2023-06-22T05:45:59;39.08;;;28.48;;
57848;SDS011;68645;44.762;21.516;2023-06-22T05:48:25;22.27;;;16.85;;
57848;SDS011;68645;44.762;21.516;2023-06-22T05:50:52;17.08;;;12.35;;
57848;SDS011;68645;44.762;21.516;2023-06-22T05:53:18;12.25;;;10.95;;
57848;SDS011;68645;44.762;21.516;2023-06-22T05:55:44;15.10;;;12.48;;
57848;SDS011;68645;44.762;21.516;2023-06-22T05:58:11;14.32;;;11.75;;
57848;SDS011;68645;44.762;21.516;2023-06-22T06:00:38;18.98;;;13.18;;
57848;SDS011;68645;44.762;21.516;2023-06-22T06:03:04;19.70;;;17.67;;
57848;SDS011;68645;44.762;21.516;2023-06-22T06:05:31;20.52;;;18.17;;
57848;SDS011;68645;44.762;21.516;2023-06-22T06:07:57;22.13;;;17.40;;
57848;SDS011;68645;44.762;21.516;2023-06-22T06:10:23;19.13;;;17.08;;
57848;SDS011;68645;44.762;21.516;2023-06-22T06:12:50;18.60;;;16.63;;
57848;SDS011;68645;44.762;21.516;2023-06-22T06:15:16;19.13;;;17.17;;
57848;SDS011;68645;44.762;21.516;2023-06-22T06:17:46;21.63;;;19.33;;
57848;SDS011;68645;44.762;21.516;2023-06-22T06:20:12;21.20;;;19.23;;
57848;SDS011;68645;44.762;21.516;2023-06-22T06:22:39;20.48;;;17.40;;
57848;SDS011;68645;44.762;21.516;2023-06-22T06:25:05;66.57;;;58.30;;
57848;SDS011;68645;44.762;21.516;2023-06-22T06:27:31;131.70;;;101.35;;
57848;SDS011;68645;44.762;21.516;2023-06-22T06:29:57;40.30;;;30.58;;
57848;SDS011;68645;44.762;21.516;2023-06-22T06:32:23;24.75;;;17.83;;
57848;SDS011;68645;44.762;21.516;2023-06-22T06:34:50;18.27;;;15.57;;
57848;SDS011;68645;44.762;21.516;2023-06-22T06:37:16;17.80;;;14.30;;
57848;SDS011;68645;44.762;21.516;2023-06-22T06:39:44;18.08;;;14.88;;
57848;SDS011;68645;44.762;21.516;2023-06-22T06:42:10;26.85;;;19.95;;
57848;SDS011;68645;44.762;21.516;2023-06-22T06:44:36;114.55;;;92.18;;
57848;SDS011;68645;44.762;21.516;2023-06-22T06:47:03;19.30;;;15.05;;
57848;SDS011;68645;44.762;21.516;2023-06-22T06:49:29;19.27;;;16.60;;
57848;SDS011;68645;44.762;21.516;2023-06-22T06:51:56;60.13;;;43.90;;
57848;SDS011;68645;44.762;21.516;2023-06-22T06:54:22;22.60;;;17.67;;
57848;SDS011;68645;44.762;21.516;2023-06-22T06:56:48;21.33;;;17.98;;
57848;SDS011;68645;44.762;21.516;2023-06-22T06:59:15;38.83;;;34.67;;
57848;SDS011;68645;44.762;21.516;2023-06-22T07:01:41;37.08;;;32.88;;
57848;SDS011;68645;44.762;21.516;2023-06-22T07:04:09;37.25;;;33.22;;
57848;SDS011;68645;44.762;21.516;2023-06-22T07:06:36;41.45;;;37.00;;
57848;SDS011;68645;44.762;21.516;2023-06-22T07:09:02;29.65;;;26.65;;
57848;SDS011;68645;44.762;21.516;2023-06-22T07:11:29;26.38;;;21.83;;
57848;SDS011;68645;44.762;21.516;2023-06-22T07:13:55;27.55;;;24.60;;
57848;SDS011;68645;44.762;21.516;2023-06-22T07:16:21;23.15;;;18.40;;
57848;SDS011;68645;44.762;21.516;2023-06-22T07:18:48;23.75;;;21.00;;
57848;SDS011;68645;44.762;21.516;2023-06-22T07:21:17;29.90;;;26.77;;
57848;SDS011;68645;44.762;21.516;2023-06-22T07:23:43;22.15;;;19.90;;
57848;SDS011;68645;44.762;21.516;2023-06-22T07:26:10;16.55;;;14.70;;
57848;SDS011;68645;44.762;21.516;2023-06-22T07:28:37;13.85;;;12.07;;
57848;SDS011;68645;44.762;21.516;2023-06-22T07:31:05;16.27;;;14.55;;
57848;SDS011;68645;44.762;21.516;2023-06-22T07:33:32;18.65;;;16.65;;
57848;SDS011;68645;44.762;21.516;2023-06-22T07:35:58;28.02;;;23.92;;
57848;SDS011;68645;44.762;21.516;2023-06-22T07:38:24;13.82;;;10.32;;
57848;SDS011;68645;44.762;21.516;2023-06-22T07:40:50;11.48;;;10.38;;
57848;SDS011;68645;44.762;21.516;2023-06-22T07:43:18;18.60;;;16.83;;
57848;SDS011;68645;44.762;21.516;2023-06-22T07:45:48;17.13;;;13.00;;
57848;SDS011;68645;44.762;21.516;2023-06-22T07:48:19;18.55;;;16.35;;
57848;SDS011;68645;44.762;21.516;2023-06-22T07:50:46;209.18;;;25.23;;
57848;SDS011;68645;44.762;21.516;2023-06-22T07:53:12;38.13;;;16.70;;
57848;SDS011;68645;44.762;21.516;2023-06-22T07:55:38;42.53;;;16.67;;
57848;SDS011;68645;44.762;21.516;2023-06-22T07:58:04;51.33;;;28.55;;
57848;SDS011;68645;44.762;21.516;2023-06-22T08:00:31;26.33;;;18.63;;
57848;SDS011;68645;44.762;21.516;2023-06-22T08:02:58;32.63;;;19.80;;
57848;SDS011;68645;44.762;21.516;2023-06-22T08:05:24;18.45;;;13.90;;
57848;SDS011;68645;44.762;21.516;2023-06-22T08:07:51;18.25;;;13.43;;
57848;SDS011;68645;44.762;21.516;2023-06-22T08:10:18;20.80;;;16.63;;
57848;SDS011;68645;44.762;21.516;2023-06-22T08:12:44;19.65;;;15.95;;
57848;SDS011;68645;44.762;21.516;2023-06-22T08:15:10;16.85;;;14.05;;
57848;SDS011;68645;44.762;21.516;2023-06-22T08:17:37;16.67;;;13.70;;
57848;SDS011;68645;44.762;21.516;2023-06-22T08:20:04;17.35;;;15.57;;
57848;SDS011;68645;44.762;21.516;2023-06-22T08:22:40;15.35;;;12.52;;
57848;SDS011;68645;44.762;21.516;2023-06-22T08:25:07;15.90;;;12.73;;
57848;SDS011;68645;44.762;21.516;2023-06-22T08:27:33;18.85;;;15.27;;
57848;SDS011;68645;44.762;21.516;2023-06-22T08:30:00;19.58;;;15.52;;
57848;SDS011;68645;44.762;21.516;2023-06-22T08:32:27;20.77;;;14.88;;
57848;SDS011;68645;44.762;21.516;2023-06-22T08:34:56;27.27;;;17.42;;
57848;SDS011;68645;44.762;21.516;2023-06-22T08:37:23;23.70;;;18.20;;
57848;SDS011;68645;44.762;21.516;2023-06-22T08:39:55;16.85;;;14.38;;
57848;SDS011;68645;44.762;21.516;2023-06-22T08:42:21;18.75;;;15.45;;
57848;SDS011;68645;44.762;21.516;2023-06-22T08:44:49;18.15;;;14.00;;
57848;SDS011;68645;44.762;21.516;2023-06-22T08:47:15;20.63;;;16.90;;
57848;SDS011;68645;44.762;21.516;2023-06-22T08:49:41;27.85;;;16.67;;
57848;SDS011;68645;44.762;21.516;2023-06-22T08:52:07;24.27;;;20.38;;
57848;SDS011;68645;44.762;21.516;2023-06-22T08:54:34;21.38;;;18.45;;
57848;SDS011;68645;44.762;21.516;2023-06-22T08:57:00;21.42;;;16.35;;
57848;SDS011;68645;44.762;21.516;2023-06-22T08:59:26;24.00;;;19.20;;
57848;SDS011;68645;44.762;21.516;2023-06-22T09:01:53;23.85;;;16.08;;
57848;SDS011;68645;44.762;21.516;2023-06-22T09:04:19;21.15;;;15.88;;
57848;SDS011;68645;44.762;21.516;2023-06-22T09:06:48;22.08;;;18.98;;
57848;SDS011;68645;44.762;21.516;2023-06-22T09:09:17;17.73;;;14.98;;
57848;SDS011;68645;44.762;21.516;2023-06-22T09:11:44;18.80;;;15.13;;
57848;SDS011;68645;44.762;21.516;2023-06-22T09:14:10;19.95;;;13.57;;
57848;SDS011;68645;44.762;21.516;2023-06-22T09:16:36;53.03;;;14.93;;
57848;SDS011;68645;44.762;21.516;2023-06-22T09:19:03;23.63;;;14.15;;
57848;SDS011;68645;44.762;21.516;2023-06-22T09:21:29;20.85;;;13.63;;
57848;SDS011;68645;44.762;21.516;2023-06-22T09:23:55;19.33;;;13.68;;
57848;SDS011;68645;44.762;21.516;2023-06-22T09:26:21;18.48;;;13.15;;
57848;SDS011;68645;44.762;21.516;2023-06-22T09:28:49;18.65;;;13.68;;
57848;SDS011;68645;44.762;21.516;2023-06-22T09:31:15;20.05;;;14.43;;
57848;SDS011;68645;44.762;21.516;2023-06-22T09:33:42;15.70;;;14.05;;
57848;SDS011;68645;44.762;21.516;2023-06-22T09:36:08;18.05;;;13.23;;
57848;SDS011;68645;44.762;21.516;2023-06-22T09:38:37;15.20;;;12.85;;
57848;SDS011;68645;44.762;21.516;2023-06-22T09:41:04;14.88;;;12.18;;
57848;SDS011;68645;44.762;21.516;2023-06-22T09:43:31;15.00;;;12.32;;
57848;SDS011;68645;44.762;21.516;2023-06-22T09:46:00;28.65;;;24.90;;
57848;SDS011;68645;44.762;21.516;2023-06-22T09:48:27;74.60;;;64.00;;
57848;SDS011;68645;44.762;21.516;2023-06-22T09:50:54;27.88;;;22.50;;
57848;SDS011;68645;44.762;21.516;2023-06-22T09:53:20;18.15;;;15.43;;
57848;SDS011;68645;44.762;21.516;2023-06-22T09:55:46;17.25;;;13.32;;
57848;SDS011;68645;44.762;21.516;2023-06-22T09:58:13;16.40;;;12.57;;
57848;SDS011;68645;44.762;21.516;2023-06-22T10:00:39;15.85;;;13.85;;
57848;SDS011;68645;44.762;21.516;2023-06-22T10:03:06;13.48;;;12.10;;
57848;SDS011;68645;44.762;21.516;2023-06-22T10:05:33;17.92;;;12.45;;
57848;SDS011;68645;44.762;21.516;2023-06-22T10:07:59;17.85;;;11.88;;
57848;SDS011;68645;44.762;21.516;2023-06-22T10:10:25;13.38;;;12.00;;
57848;SDS011;68645;44.762;21.516;2023-06-22T10:12:57;11.82;;;10.55;;
57848;SDS011;68645;44.762;21.516;2023-06-22T10:15:24;12.75;;;11.15;;
57848;SDS011;68645;44.762;21.516;2023-06-22T10:17:52;14.77;;;10.50;;
57848;SDS011;68645;44.762;21.516;2023-06-22T10:20:18;13.52;;;8.45;;
57848;SDS011;68645;44.762;21.516;2023-06-22T10:22:45;15.13;;;9.18;;
57848;SDS011;68645;44.762;21.516;2023-06-22T10:25:12;15.68;;;8.60;;
57848;SDS011;68645;44.762;21.516;2023-06-22T10:27:38;22.63;;;9.95;;
57848;SDS011;68645;44.762;21.516;2023-06-22T10:30:05;13.25;;;8.65;;
57848;SDS011;68645;44.762;21.516;2023-06-22T10:32:32;12.10;;;8.73;;
57848;SDS011;68645;44.762;21.516;2023-06-22T10:34:58;12.10;;;8.10;;
57848;SDS011;68645;44.762;21.516;2023-06-22T10:37:24;12.85;;;8.07;;
57848;SDS011;68645;44.762;21.516;2023-06-22T10:39:50;12.88;;;8.80;;
57848;SDS011;68645;44.762;21.516;2023-06-22T10:42:16;13.00;;;8.75;;
57848;SDS011;68645;44.762;21.516;2023-06-22T10:44:43;11.98;;;8.50;;
57848;SDS011;68645;44.762;21.516;2023-06-22T10:47:09;10.93;;;8.13;;
57848;SDS011;68645;44.762;21.516;2023-06-22T10:49:39;25.40;;;9.45;;
57848;SDS011;68645;44.762;21.516;2023-06-22T10:52:06;19.75;;;9.27;;
57848;SDS011;68645;44.762;21.516;2023-06-22T10:54:32;14.30;;;9.30;;
57848;SDS011;68645;44.762;21.516;2023-06-22T10:56:59;17.55;;;8.63;;
57848;SDS011;68645;44.762;21.516;2023-06-22T10:59:25;14.63;;;8.32;;
57848;SDS011;68645;44.762;21.516;2023-06-22T11:01:52;14.43;;;9.73;;
57848;SDS011;68645;44.762;21.516;2023-06-22T11:04:18;16.08;;;9.07;;
57848;SDS011;68645;44.762;21.516;2023-06-22T11:06:45;18.48;;;13.07;;
57848;SDS011;68645;44.762;21.516;2023-06-22T11:09:11;16.75;;;10.88;;
57848;SDS011;68645;44.762;21.516;2023-06-22T11:11:37;17.48;;;9.93;;
57848;SDS011;68645;44.762;21.516;2023-06-22T11:14:03;19.13;;;10.38;;
57848;SDS011;68645;44.762;21.516;2023-06-22T11:16:29;16.92;;;12.23;;
57848;SDS011;68645;44.762;21.516;2023-06-22T11:18:55;16.00;;;11.10;;
57848;SDS011;68645;44.762;21.516;2023-06-22T11:21:21;15.60;;;10.20;;
57848;SDS011;68645;44.762;21.516;2023-06-22T11:23:47;14.63;;;9.10;;
57848;SDS011;68645;44.762;21.516;2023-06-22T11:26:14;11.13;;;8.00;;
57848;SDS011;68645;44.762;21.516;2023-06-22T11:28:40;19.52;;;16.13;;
57848;SDS011;68645;44.762;21.516;2023-06-22T11:31:06;60.70;;;48.10;;
57848;SDS011;68645;44.762;21.516;2023-06-22T11:33:32;15.80;;;11.05;;
57848;SDS011;68645;44.762;21.516;2023-06-22T11:35:58;13.10;;;7.40;;
57848;SDS011;68645;44.762;21.516;2023-06-22T11:38:26;9.57;;;6.68;;
57848;SDS011;68645;44.762;21.516;2023-06-22T11:40:52;9.98;;;7.20;;
57848;SDS011;68645;44.762;21.516;2023-06-22T11:43:18;11.57;;;6.82;;
57848;SDS011;68645;44.762;21.516;2023-06-22T11:45:45;12.15;;;6.20;;
57848;SDS011;68645;44.762;21.516;2023-06-22T11:48:11;15.70;;;8.73;;
57848;SDS011;68645;44.762;21.516;2023-06-22T11:50:37;11.63;;;6.30;;
57848;SDS011;68645;44.762;21.516;2023-06-22T11:53:03;11.25;;;5.88;;
57848;SDS011;68645;44.762;21.516;2023-06-22T11:55:29;9.07;;;5.15;;
57848;SDS011;68645;44.762;21.516;2023-06-22T11:57:56;9.27;;;5.82;;
57848;SDS011;68645;44.762;21.516;2023-06-22T12:00:28;9.23;;;6.30;;
57848;SDS011;68645;44.762;21.516;2023-06-22T12:02:55;10.02;;;6.45;;
57848;SDS011;68645;44.762;21.516;2023-06-22T12:05:21;10.13;;;6.32;;
57848;SDS011;68645;44.762;21.516;2023-06-22T12:07:49;9.38;;;6.10;;
57848;SDS011;68645;44.762;21.516;2023-06-22T12:10:15;10.65;;;5.72;;
57848;SDS011;68645;44.762;21.516;2023-06-22T12:12:41;11.85;;;6.03;;
57848;SDS011;68645;44.762;21.516;2023-06-22T12:15:10;9.65;;;6.22;;
57848;SDS011;68645;44.762;21.516;2023-06-22T12:17:37;9.68;;;6.28;;
57848;SDS011;68645;44.762;21.516;2023-06-22T12:20:03;12.70;;;6.38;;
57848;SDS011;68645;44.762;21.516;2023-06-22T12:22:33;11.23;;;6.57;;
57848;SDS011;68645;44.762;21.516;2023-06-22T12:25:00;10.57;;;5.78;;
57848;SDS011;68645;44.762;21.516;2023-06-22T12:27:26;9.95;;;6.78;;
57848;SDS011;68645;44.762;21.516;2023-06-22T12:29:52;12.23;;;7.00;;
57848;SDS011;68645;44.762;21.516;2023-06-22T12:32:18;8.75;;;5.70;;
57848;SDS011;68645;44.762;21.516;2023-06-22T12:34:45;8.68;;;6.25;;
57848;SDS011;68645;44.762;21.516;2023-06-22T12:37:11;12.02;;;6.68;;
57848;SDS011;68645;44.762;21.516;2023-06-22T12:39:37;10.43;;;6.72;;
57848;SDS011;68645;44.762;21.516;2023-06-22T12:42:03;9.63;;;6.32;;
57848;SDS011;68645;44.762;21.516;2023-06-22T12:44:29;8.95;;;6.25;;
57848;SDS011;68645;44.762;21.516;2023-06-22T12:46:55;11.35;;;5.82;;
57848;SDS011;68645;44.762;21.516;2023-06-22T12:49:22;12.68;;;8.00;;
57848;SDS011;68645;44.762;21.516;2023-06-22T12:51:48;16.95;;;8.82;;
57848;SDS011;68645;44.762;21.516;2023-06-22T12:54:14;19.35;;;10.23;;
57848;SDS011;68645;44.762;21.516;2023-06-22T12:56:40;16.67;;;9.13;;
57848;SDS011;68645;44.762;21.516;2023-06-22T12:59:09;15.95;;;8.93;;
57848;SDS011;68645;44.762;21.516;2023-06-22T13:01:35;13.45;;;7.53;;
57848;SDS011;68645;44.762;21.516;2023-06-22T13:04:02;17.25;;;7.78;;
57848;SDS011;68645;44.762;21.516;2023-06-22T13:06:28;14.02;;;7.10;;
57848;SDS011;68645;44.762;21.516;2023-06-22T13:08:55;13.70;;;8.10;;
57848;SDS011;68645;44.762;21.516;2023-06-22T13:11:21;24.95;;;8.52;;
57848;SDS011;68645;44.762;21.516;2023-06-22T13:13:47;12.20;;;7.25;;
57848;SDS011;68645;44.762;21.516;2023-06-22T13:16:13;12.82;;;7.35;;
57848;SDS011;68645;44.762;21.516;2023-06-22T13:18:39;15.05;;;7.50;;
57848;SDS011;68645;44.762;21.516;2023-06-22T13:21:05;18.67;;;9.45;;
57848;SDS011;68645;44.762;21.516;2023-06-22T13:23:32;18.40;;;10.00;;
57848;SDS011;68645;44.762;21.516;2023-06-22T13:25:59;14.77;;;10.75;;
57848;SDS011;68645;44.762;21.516;2023-06-22T13:28:25;12.55;;;7.90;;
57848;SDS011;68645;44.762;21.516;2023-06-22T13:30:51;13.05;;;9.00;;
57848;SDS011;68645;44.762;21.516;2023-06-22T13:33:17;10.68;;;6.85;;
57848;SDS011;68645;44.762;21.516;2023-06-22T13:35:44;12.20;;;8.85;;
57848;SDS011;68645;44.762;21.516;2023-06-22T13:38:10;13.80;;;8.48;;
57848;SDS011;68645;44.762;21.516;2023-06-22T13:40:37;11.35;;;7.50;;
57848;SDS011;68645;44.762;21.516;2023-06-22T13:43:04;11.32;;;7.47;;
57848;SDS011;68645;44.762;21.516;2023-06-22T13:45:30;10.90;;;7.75;;
57848;SDS011;68645;44.762;21.516;2023-06-22T13:47:56;13.38;;;7.80;;
57848;SDS011;68645;44.762;21.516;2023-06-22T13:50:23;10.93;;;7.18;;
57848;SDS011;68645;44.762;21.516;2023-06-22T13:52:49;10.45;;;7.18;;
57848;SDS011;68645;44.762;21.516;2023-06-22T13:55:15;12.93;;;7.50;;
57848;SDS011;68645;44.762;21.516;2023-06-22T13:57:42;14.60;;;8.35;;
57848;SDS011;68645;44.762;21.516;2023-06-22T14:00:08;15.82;;;8.88;;
57848;SDS011;68645;44.762;21.516;2023-06-22T14:02:34;13.38;;;8.32;;
57848;SDS011;68645;44.762;21.516;2023-06-22T14:05:00;21.35;;;15.57;;
57848;SDS011;68645;44.762;21.516;2023-06-22T14:07:27;18.83;;;15.05;;
57848;SDS011;68645;44.762;21.516;2023-06-22T14:09:53;17.45;;;9.25;;
57848;SDS011;68645;44.762;21.516;2023-06-22T14:12:20;17.30;;;14.25;;
57848;SDS011;68645;44.762;21.516;2023-06-22T14:14:46;17.58;;;12.75;;
57848;SDS011;68645;44.762;21.516;2023-06-22T14:17:12;12.75;;;9.80;;
57848;SDS011;68645;44.762;21.516;2023-06-22T14:19:38;13.48;;;7.80;;
57848;SDS011;68645;44.762;21.516;2023-06-22T14:22:04;16.83;;;7.70;;
57848;SDS011;68645;44.762;21.516;2023-06-22T14:24:30;12.95;;;8.50;;
57848;SDS011;68645;44.762;21.516;2023-06-22T14:26:56;18.38;;;11.75;;